Portada
METAR-TAF:

METAR-TAF

Aeropuertos :

Aeropuerto de Sabadell

Sabadell, España

latitud: 41-31N, longitud: 002-06E, altitud: 250 m

Observación

El informe se hizo hace 38 minutos, a las 01:30 UTC
Viento 6 kt del oeste
Temperatura 21°C
Humedad 88%
Presión 1015 hPa
Visibilidad 10 km o más

METAR: LELL 190130Z AUTO 28006KT 9999 NCD 21/19 Q1015

Hora: 04:08 (02:08 UTC)

Pronóstico

El informe se hizo hace 12 horas y 8 minutos, a las 14:00 UTC
Pronóstico válido del 18 a las 15 UTC al 19 a las 15 UTC
Viento 10 kt del sur-sureste
Visibilidad 10 km o más
Escasas nubes a una altura de 4000 ft
Evolucionando progresivamente
del 18 a las 18 UTC al 18 a las 20 UTC
Viento 3 kt con dirección variable
Evolucionando progresivamente
del 19 a las 10 UTC al 19 a las 12 UTC
Viento 8 kt del sur-sureste

TAF: LELL 181400Z 1815/1915 16010KT 9999 FEW040 TX33/1913Z TN19/1905Z BECMG 1818/1820 VRB03KT BECMG 1910/1912 16008KT

Observaciones y pronósticos meteorológicos de más de 4000 aeropuertos (mensajes METAR y TAF).

Los puntos amarillos y rojos representan las estaciones disponibles.

Ponga el ratón en el punto deseado para ver el nombre de la estación.

Haga clic para ver las observaciones y los pronósticos meteorológicos.

Para cambiar el mapa : haga clic en los botones verdes con una cruz de color negro para hacer un zoom, en el botón verde con un guión para alejar o en las flechas verdes para mapas adyacentes.


METAR-TAF: